createdAt,value
2018-12-29T00:01:25.266Z,55.15
2018-12-29T00:03:54.799Z,55.55
2018-12-29T00:06:24.292Z,55.73
2018-12-29T00:08:53.768Z,55.15
2018-12-29T00:11:23.261Z,54.80
2018-12-29T00:13:52.761Z,54.90
2018-12-29T00:16:22.294Z,57.05
2018-12-29T00:18:51.777Z,57.73
2018-12-29T00:21:21.296Z,57.10
2018-12-29T00:23:50.792Z,56.80
2018-12-29T00:26:20.343Z,55.95
2018-12-29T00:28:49.828Z,56.70
2018-12-29T00:31:19.397Z,57.60
2018-12-29T00:33:48.891Z,57.23
2018-12-29T00:36:18.449Z,57.88
2018-12-29T00:38:47.932Z,57.35
2018-12-29T00:41:17.435Z,57.53
2018-12-29T00:43:46.982Z,55.23
2018-12-29T00:46:16.500Z,57.20
2018-12-29T00:48:46.018Z,56.65
2018-12-29T00:51:15.495Z,57.17
2018-12-29T00:53:44.993Z,57.48
2018-12-29T00:56:14.502Z,54.67
2018-12-29T00:58:44.061Z,53.90
2018-12-29T01:01:13.614Z,56.30
2018-12-29T01:03:43.107Z,57.13
2018-12-29T01:06:12.596Z,56.00
2018-12-29T01:08:42.095Z,52.95
2018-12-29T01:11:11.655Z,53.30
2018-12-29T01:13:41.255Z,53.17
2018-12-29T01:16:10.737Z,53.83
2018-12-29T01:18:40.235Z,54.83
2018-12-29T01:21:09.722Z,52.13
2018-12-29T01:23:39.323Z,55.03
2018-12-29T01:26:08.836Z,53.85
2018-12-29T01:28:38.437Z,54.20
2018-12-29T01:31:08.082Z,51.92
2018-12-29T01:33:37.521Z,54.08
2018-12-29T01:36:06.996Z,52.75
2018-12-29T01:38:36.480Z,54.38
2018-12-29T01:41:05.967Z,54.85
2018-12-29T01:43:35.504Z,55.52
2018-12-29T01:46:05.040Z,54.80
2018-12-29T01:48:34.551Z,56.73
2018-12-29T01:51:04.109Z,55.80
2018-12-29T01:53:33.611Z,56.83
2018-12-29T01:56:03.108Z,54.98
2018-12-29T01:58:32.607Z,54.75
2018-12-29T02:01:02.094Z,55.92
2018-12-29T02:03:31.585Z,54.75
2018-12-29T02:06:01.160Z,54.00
2018-12-29T02:08:30.664Z,53.67
2018-12-29T02:11:00.173Z,54.90
2018-12-29T02:13:29.706Z,53.33
2018-12-29T02:15:59.187Z,52.25
2018-12-29T02:18:29.741Z,50.23
2018-12-29T02:20:59.238Z,52.48
2018-12-29T02:23:28.721Z,52.15
2018-12-29T02:25:58.345Z,51.28
2018-12-29T02:28:27.840Z,51.90
2018-12-29T02:30:57.331Z,51.77
2018-12-29T02:33:26.875Z,50.88
2018-12-29T02:35:56.372Z,51.88
2018-12-29T02:38:25.863Z,53.05
2018-12-29T02:40:55.446Z,52.13
2018-12-29T02:43:24.963Z,54.40
2018-12-29T02:45:54.451Z,51.90
2018-12-29T02:48:23.947Z,53.23
2018-12-29T02:50:53.438Z,53.63
2018-12-29T02:53:22.929Z,52.43
2018-12-29T02:55:52.408Z,53.08
2018-12-29T02:58:21.907Z,52.05
2018-12-29T03:00:51.387Z,50.70
2018-12-29T03:03:20.897Z,51.23
2018-12-29T03:05:50.391Z,51.80
2018-12-29T03:08:19.885Z,49.25
2018-12-29T03:10:49.372Z,51.10
2018-12-29T03:13:18.863Z,49.93
2018-12-29T03:15:48.343Z,49.57
2018-12-29T03:18:17.834Z,51.00
2018-12-29T03:20:47.322Z,52.43
2018-12-29T03:23:16.838Z,51.45
2018-12-29T03:25:46.335Z,51.30
2018-12-29T03:28:15.837Z,51.63
2018-12-29T03:30:45.336Z,49.55
2018-12-29T03:33:14.839Z,50.50
2018-12-29T03:35:44.346Z,51.28
2018-12-29T03:38:13.907Z,52.03
2018-12-29T03:40:43.406Z,50.65
2018-12-29T03:43:12.941Z,52.93
2018-12-29T03:45:49.108Z,51.35
2018-12-29T03:48:13.634Z,50.40
2018-12-29T03:50:43.140Z,51.23
2018-12-29T03:53:12.707Z,50.00
2018-12-29T03:55:42.219Z,51.75
2018-12-29T03:58:11.719Z,48.98
2018-12-29T04:00:41.218Z,48.60
2018-12-29T04:03:10.698Z,49.23
2018-12-29T04:05:40.191Z,49.65
2018-12-29T04:08:09.679Z,49.70
2018-12-29T04:10:39.173Z,50.10
2018-12-29T04:13:08.656Z,48.70
2018-12-29T04:15:38.143Z,47.25
2018-12-29T04:18:07.630Z,46.75
2018-12-29T04:20:37.133Z,48.60
2018-12-29T04:23:06.687Z,48.50
2018-12-29T04:25:36.261Z,46.57
2018-12-29T04:28:05.760Z,45.77
2018-12-29T04:30:35.263Z,47.70
2018-12-29T04:33:04.758Z,46.97
2018-12-29T04:35:34.252Z,46.13
2018-12-29T04:38:03.748Z,45.83
2018-12-29T04:40:33.233Z,45.70
2018-12-29T04:43:02.734Z,45.00
2018-12-29T04:45:32.238Z,44.97
2018-12-29T04:48:01.747Z,44.93
2018-12-29T04:50:31.264Z,43.95
2018-12-29T04:53:00.788Z,44.50
2018-12-29T04:55:30.298Z,42.25
2018-12-29T04:57:59.777Z,44.40
2018-12-29T05:00:29.272Z,43.68
2018-12-29T05:02:58.760Z,42.33
2018-12-29T05:05:28.248Z,40.92
2018-12-29T05:07:57.724Z,42.38
2018-12-29T05:10:27.227Z,39.27
2018-12-29T05:12:56.732Z,40.73
2018-12-29T05:15:26.246Z,40.03
2018-12-29T05:17:55.738Z,41.90
2018-12-29T05:20:25.270Z,42.05
2018-12-29T05:22:54.801Z,39.90
2018-12-29T05:25:24.328Z,40.23
2018-12-29T05:27:53.826Z,39.60
2018-12-29T05:30:23.315Z,39.40
2018-12-29T05:32:53.143Z,38.30
2018-12-29T05:35:22.638Z,39.50
2018-12-29T05:37:52.149Z,37.87
2018-12-29T05:40:21.676Z,36.20
2018-12-29T05:42:51.164Z,36.83
2018-12-29T05:45:20.661Z,37.47
2018-12-29T05:47:50.161Z,34.83
2018-12-29T05:50:20.639Z,34.50
2018-12-29T05:52:50.165Z,35.33
2018-12-29T05:55:19.661Z,36.77
2018-12-29T05:57:49.146Z,37.47
2018-12-29T06:00:18.659Z,38.10
2018-12-29T06:02:48.152Z,39.03
2018-12-29T06:05:17.633Z,39.40
2018-12-29T06:07:47.123Z,40.70
2018-12-29T06:10:16.629Z,38.60
2018-12-29T06:12:46.122Z,40.80
2018-12-29T06:15:15.630Z,39.33
2018-12-29T06:17:45.123Z,40.00
2018-12-29T06:20:14.648Z,40.50
2018-12-29T06:22:44.144Z,41.25
2018-12-29T06:25:13.639Z,40.03
2018-12-29T06:27:43.140Z,41.00
2018-12-29T06:30:12.626Z,42.45
2018-12-29T06:32:42.161Z,42.93
2018-12-29T06:35:11.630Z,41.77
2018-12-29T06:37:41.120Z,40.65
2018-12-29T06:40:10.624Z,41.60
2018-12-29T06:42:40.137Z,42.27
2018-12-29T06:45:09.633Z,42.80
2018-12-29T06:47:39.151Z,42.23
2018-12-29T06:50:08.642Z,41.00
2018-12-29T06:52:38.148Z,41.68
2018-12-29T06:55:07.652Z,43.55
2018-12-29T06:57:37.178Z,43.00
2018-12-29T07:00:06.705Z,41.80
2018-12-29T07:02:36.208Z,43.68
2018-12-29T07:05:05.765Z,42.50
2018-12-29T07:07:35.253Z,42.40
2018-12-29T07:10:05.225Z,42.47
2018-12-29T07:12:34.727Z,43.13
2018-12-29T07:15:04.325Z,42.75
2018-12-29T07:17:33.848Z,40.60
2018-12-29T07:20:03.459Z,40.53
2018-12-29T07:22:32.943Z,38.00
2018-12-29T07:25:02.695Z,39.23
2018-12-29T07:27:32.181Z,37.15
2018-12-29T07:30:01.773Z,36.17
2018-12-29T07:32:31.214Z,35.13
2018-12-29T07:35:00.697Z,35.30
2018-12-29T07:37:30.209Z,35.08
2018-12-29T07:39:59.695Z,36.00
2018-12-29T07:42:29.187Z,37.07
2018-12-29T07:44:58.687Z,38.47
2018-12-29T07:47:28.200Z,40.13
2018-12-29T07:49:57.706Z,40.17
2018-12-29T07:52:27.458Z,41.47
2018-12-29T07:54:56.949Z,41.20
2018-12-29T07:57:26.463Z,43.98
2018-12-29T07:59:55.957Z,42.90
2018-12-29T08:02:26.446Z,40.50
2018-12-29T08:04:55.935Z,41.30
2018-12-29T08:07:25.469Z,41.65
2018-12-29T08:09:54.975Z,42.17
2018-12-29T08:12:24.464Z,40.35
2018-12-29T08:14:53.982Z,41.23
2018-12-29T08:17:23.510Z,41.50
2018-12-29T08:19:53.002Z,42.30
2018-12-29T08:22:24.122Z,42.35
2018-12-29T08:24:53.753Z,43.33
2018-12-29T08:27:23.243Z,44.13
2018-12-29T08:29:52.730Z,42.08
2018-12-29T08:32:22.233Z,43.90
2018-12-29T08:34:51.732Z,43.15
2018-12-29T08:37:21.238Z,43.30
2018-12-29T08:39:50.716Z,44.23
2018-12-29T08:42:20.245Z,43.08
2018-12-29T08:44:49.784Z,43.25
2018-12-29T08:47:19.300Z,42.10
2018-12-29T08:49:48.797Z,41.47
2018-12-29T08:52:18.287Z,44.10
2018-12-29T08:54:47.768Z,42.98
2018-12-29T08:57:17.251Z,44.83
2018-12-29T08:59:46.734Z,43.90
2018-12-29T09:02:16.241Z,41.10
2018-12-29T09:04:47.052Z,36.98
2018-12-29T09:07:16.598Z,41.40
2018-12-29T09:09:46.108Z,40.67
2018-12-29T09:12:15.599Z,42.20
2018-12-29T09:14:45.076Z,42.40
2018-12-29T09:17:14.624Z,41.67
2018-12-29T09:19:44.113Z,43.40
2018-12-29T09:22:13.624Z,41.95
2018-12-29T09:24:44.089Z,43.75
2018-12-29T09:27:13.593Z,45.58
2018-12-29T09:29:44.121Z,45.20
2018-12-29T09:32:13.611Z,46.58
2018-12-29T09:34:43.102Z,47.70
2018-12-29T09:37:12.623Z,47.10
2018-12-29T09:39:42.141Z,46.88
2018-12-29T09:42:11.623Z,47.45
2018-12-29T09:44:41.153Z,49.53
2018-12-29T09:47:10.669Z,47.83
2018-12-29T09:49:40.977Z,48.75
2018-12-29T09:52:11.373Z,47.05
2018-12-29T09:54:41.419Z,46.85
2018-12-29T09:57:10.904Z,48.53
2018-12-29T09:59:40.407Z,45.52
2018-12-29T10:02:09.896Z,46.98
2018-12-29T10:04:39.381Z,45.43
2018-12-29T10:07:08.929Z,45.83
2018-12-29T10:09:38.436Z,45.40
2018-12-29T10:12:07.922Z,46.10
2018-12-29T10:14:37.409Z,45.85
2018-12-29T10:17:06.576Z,45.80
2018-12-29T10:19:36.088Z,44.67
2018-12-29T10:22:05.601Z,44.63
2018-12-29T10:24:35.125Z,45.80
2018-12-29T10:27:04.618Z,44.50
2018-12-29T10:29:34.138Z,44.08
2018-12-29T10:32:03.642Z,42.98
2018-12-29T10:34:33.135Z,44.40
2018-12-29T10:37:02.627Z,45.38
2018-12-29T10:39:32.139Z,45.57
2018-12-29T10:42:01.620Z,45.40
2018-12-29T10:44:31.104Z,44.45
2018-12-29T10:47:00.707Z,46.53
2018-12-29T10:49:30.960Z,45.35
2018-12-29T10:52:00.461Z,48.60
2018-12-29T10:54:29.972Z,49.45
2018-12-29T10:56:59.469Z,48.35
2018-12-29T10:59:28.986Z,49.30
2018-12-29T11:01:58.472Z,49.30
2018-12-29T11:04:27.988Z,51.05
2018-12-29T11:06:57.478Z,49.10
2018-12-29T11:09:27.966Z,50.12
2018-12-29T11:11:57.469Z,51.60
2018-12-29T11:14:26.983Z,48.90
2018-12-29T11:16:56.533Z,51.55
2018-12-29T11:19:26.024Z,49.30
2018-12-29T11:21:55.515Z,51.95
2018-12-29T11:24:25.015Z,51.47
2018-12-29T11:26:54.539Z,53.17
2018-12-29T11:29:24.033Z,52.62
2018-12-29T11:31:53.510Z,53.20
2018-12-29T11:34:23.035Z,53.90
2018-12-29T11:36:52.513Z,52.73
2018-12-29T11:39:22.022Z,52.17
2018-12-29T11:41:51.549Z,51.50
2018-12-29T11:44:21.063Z,54.10
2018-12-29T11:46:50.999Z,53.43
2018-12-29T11:49:20.613Z,55.43
2018-12-29T11:51:50.112Z,57.60
2018-12-29T11:54:19.624Z,55.78
2018-12-29T11:56:49.129Z,56.98
2018-12-29T11:59:18.629Z,56.40
2018-12-29T12:01:48.149Z,57.05
2018-12-29T12:04:17.646Z,57.67
2018-12-29T12:06:47.197Z,58.05
2018-12-29T12:09:16.872Z,59.33
2018-12-29T12:11:46.385Z,61.50
2018-12-29T12:14:15.880Z,62.83
2018-12-29T12:16:45.389Z,63.48
2018-12-29T12:19:14.899Z,61.83
2018-12-29T12:21:44.381Z,62.67
2018-12-29T12:24:13.931Z,62.50
2018-12-29T12:26:43.423Z,64.10
2018-12-29T12:29:12.926Z,63.83
2018-12-29T12:31:42.705Z,63.17
2018-12-29T12:34:12.240Z,64.90
2018-12-29T12:36:42.139Z,64.45
2018-12-29T12:39:11.659Z,61.08
2018-12-29T12:41:41.204Z,64.20
2018-12-29T12:44:10.724Z,62.93
2018-12-29T12:46:40.529Z,63.53
2018-12-29T12:49:10.322Z,65.43
2018-12-29T12:51:39.877Z,65.00
2018-12-29T12:54:09.799Z,65.37
2018-12-29T12:56:39.304Z,62.17
2018-12-29T12:59:08.994Z,63.43
2018-12-29T13:01:38.550Z,62.47
2018-12-29T13:04:08.068Z,64.25
2018-12-29T13:06:37.574Z,64.42
2018-12-29T13:09:07.602Z,66.55
2018-12-29T13:11:37.132Z,65.50
2018-12-29T13:14:06.972Z,63.75
2018-12-29T13:16:36.498Z,62.65
2018-12-29T13:19:05.979Z,60.40
2018-12-29T13:21:35.779Z,58.03
2018-12-29T13:24:05.274Z,55.50
2018-12-29T13:26:34.796Z,57.03
2018-12-29T13:29:04.286Z,53.50
2018-12-29T13:31:33.798Z,51.65
2018-12-29T13:34:03.320Z,53.55
2018-12-29T13:36:32.917Z,51.47
2018-12-29T13:39:02.439Z,50.20
2018-12-29T13:41:33.025Z,50.17
2018-12-29T13:44:02.651Z,51.33
2018-12-29T13:46:32.179Z,47.90
2018-12-29T13:49:01.708Z,47.80
2018-12-29T13:51:31.205Z,46.47
2018-12-29T13:54:00.714Z,46.33
2018-12-29T13:56:30.554Z,46.00
2018-12-29T13:59:00.037Z,47.03
2018-12-29T14:01:29.632Z,46.15
2018-12-29T14:03:59.177Z,44.67
2018-12-29T14:06:28.713Z,46.53
2018-12-29T14:08:58.213Z,44.70
2018-12-29T14:11:27.973Z,43.40
2018-12-29T14:13:57.530Z,43.80
2018-12-29T14:16:27.121Z,43.67
2018-12-29T14:18:56.739Z,42.93
2018-12-29T14:21:30.047Z,43.63
2018-12-29T14:23:59.593Z,43.40
2018-12-29T14:26:29.159Z,44.67
2018-12-29T14:28:58.677Z,44.23
2018-12-29T14:31:28.263Z,44.40
2018-12-29T14:33:57.787Z,42.95
2018-12-29T14:36:27.363Z,41.37
2018-12-29T14:38:56.878Z,41.07
2018-12-29T14:41:26.588Z,39.85
2018-12-29T14:43:56.209Z,38.40
2018-12-29T14:46:25.723Z,39.98
2018-12-29T14:48:55.330Z,36.63
2018-12-29T14:51:24.926Z,37.10
2018-12-29T14:53:54.471Z,35.37
2018-12-29T14:56:24.016Z,33.83
2018-12-29T14:58:53.507Z,34.73
2018-12-29T15:01:23.012Z,34.25
2018-12-29T15:03:52.728Z,32.95
2018-12-29T15:06:22.238Z,32.30
2018-12-29T15:08:51.764Z,32.13
2018-12-29T15:11:21.275Z,33.07
2018-12-29T15:13:50.767Z,32.45
2018-12-29T15:16:20.276Z,32.70
2018-12-29T15:18:49.777Z,30.13
2018-12-29T15:21:19.252Z,31.80
2018-12-29T15:23:48.743Z,33.20
2018-12-29T15:26:18.613Z,33.20
2018-12-29T15:28:48.130Z,35.00
2018-12-29T15:31:17.646Z,35.90
2018-12-29T15:33:47.147Z,36.57
2018-12-29T15:36:16.628Z,38.60
2018-12-29T15:38:46.156Z,37.00
2018-12-29T15:41:15.625Z,38.43
2018-12-29T15:43:45.131Z,36.90
2018-12-29T15:46:14.630Z,35.57
2018-12-29T15:48:50.934Z,35.83
2018-12-29T15:51:15.313Z,35.60
2018-12-29T15:53:44.805Z,34.25
2018-12-29T15:56:14.691Z,35.70
2018-12-29T15:58:44.197Z,35.13
2018-12-29T16:01:13.874Z,37.13
2018-12-29T16:03:43.366Z,37.20
2018-12-29T16:06:12.860Z,33.48
2018-12-29T16:08:42.352Z,35.05
2018-12-29T16:11:12.223Z,33.05
2018-12-29T16:13:42.038Z,31.70
2018-12-29T16:16:11.523Z,33.42
2018-12-29T16:18:41.070Z,33.30
2018-12-29T16:21:10.544Z,30.67
2018-12-29T16:23:40.099Z,31.00
2018-12-29T16:26:12.902Z,31.07
2018-12-29T16:28:40.846Z,28.65
2018-12-29T16:31:10.823Z,29.65
2018-12-29T16:33:41.775Z,30.97
2018-12-29T16:36:11.590Z,30.30
2018-12-29T16:38:41.108Z,28.97
2018-12-29T16:41:10.640Z,29.98
2018-12-29T16:43:40.339Z,27.02
2018-12-29T16:46:09.852Z,27.00
2018-12-29T16:48:39.373Z,26.73
2018-12-29T16:51:08.872Z,24.27
2018-12-29T16:53:38.445Z,26.07
2018-12-29T16:56:08.930Z,23.00
2018-12-29T16:58:38.422Z,21.82
2018-12-29T17:01:07.923Z,21.12
2018-12-29T17:03:37.808Z,18.95
2018-12-29T17:06:07.361Z,18.07
2018-12-29T17:08:36.851Z,19.10
2018-12-29T17:11:06.392Z,18.77
2018-12-29T17:13:36.932Z,19.12
2018-12-29T17:16:06.424Z,18.90
2018-12-29T17:18:35.937Z,20.48
2018-12-29T17:21:05.736Z,20.00
2018-12-29T17:23:35.270Z,19.03
2018-12-29T17:26:04.752Z,17.07
2018-12-29T17:28:34.540Z,15.78
2018-12-29T17:31:04.042Z,17.42
2018-12-29T17:33:33.586Z,17.23
2018-12-29T17:36:03.144Z,16.90
2018-12-29T17:38:32.653Z,17.35
2018-12-29T17:41:02.503Z,17.20
2018-12-29T17:43:32.344Z,16.42
2018-12-29T17:46:01.841Z,17.07
2018-12-29T17:48:31.354Z,17.97
2018-12-29T17:51:00.845Z,18.40
2018-12-29T17:53:30.544Z,18.63
2018-12-29T17:56:00.024Z,19.10
2018-12-29T17:58:29.803Z,19.93
2018-12-29T18:00:59.296Z,20.43
2018-12-29T18:03:28.811Z,19.30
2018-12-29T18:05:58.410Z,20.15
2018-12-29T18:08:27.917Z,22.45
2018-12-29T18:10:57.425Z,22.47
2018-12-29T18:13:27.100Z,23.47
2018-12-29T18:15:56.597Z,23.60
2018-12-29T18:18:26.092Z,25.32
2018-12-29T18:20:55.657Z,26.10
2018-12-29T18:23:25.396Z,26.03
2018-12-29T18:25:54.885Z,25.50
2018-12-29T18:28:24.362Z,26.60
2018-12-29T18:30:53.874Z,26.90
2018-12-29T18:33:23.376Z,26.50
2018-12-29T18:35:53.156Z,27.06
2018-12-29T18:38:22.972Z,27.30
2018-12-29T18:40:52.847Z,28.70
2018-12-29T18:43:22.343Z,29.10
2018-12-29T18:45:51.852Z,29.80
2018-12-29T18:48:21.349Z,28.60
2018-12-29T18:50:51.236Z,28.20
2018-12-29T18:53:20.723Z,27.10
2018-12-29T18:55:50.236Z,27.77
2018-12-29T18:58:19.737Z,27.87
2018-12-29T19:00:49.238Z,27.55
2018-12-29T19:03:18.941Z,28.23
2018-12-29T19:05:48.524Z,28.23
2018-12-29T19:08:18.085Z,27.40
2018-12-29T19:10:47.584Z,29.67
2018-12-29T19:13:17.488Z,30.40
2018-12-29T19:15:47.256Z,31.37
2018-12-29T19:18:16.750Z,33.43
2018-12-29T19:20:46.545Z,34.87
2018-12-29T19:23:16.312Z,34.33
2018-12-29T19:25:46.186Z,35.30
2018-12-29T19:28:15.950Z,34.25
2018-12-29T19:30:45.533Z,33.83
2018-12-29T19:33:15.385Z,35.20
2018-12-29T19:35:45.191Z,34.53
2018-12-29T19:38:15.078Z,33.63
2018-12-29T19:40:44.988Z,35.10
2018-12-29T19:43:14.785Z,34.00
2018-12-29T19:45:44.284Z,33.80
2018-12-29T19:48:13.794Z,32.23
2018-12-29T19:50:43.318Z,29.85
2018-12-29T19:53:13.207Z,27.97
2018-12-29T19:55:42.710Z,26.00
2018-12-29T19:58:12.233Z,25.20
2018-12-29T20:00:41.827Z,22.02
2018-12-29T20:03:11.810Z,20.25
2018-12-29T20:05:41.595Z,17.87
2018-12-29T20:08:12.073Z,16.23
2018-12-29T20:10:42.154Z,16.82
2018-12-29T20:13:11.644Z,14.23
2018-12-29T20:15:41.178Z,13.47
2018-12-29T20:18:10.628Z,13.87
2018-12-29T20:20:40.184Z,11.53
2018-12-29T20:23:09.714Z,8.60
2018-12-29T20:25:39.202Z,7.55
2018-12-29T20:28:08.676Z,7.08
2018-12-29T20:30:38.174Z,7.40
2018-12-29T20:33:07.687Z,7.03
2018-12-29T20:35:37.207Z,5.10
2018-12-29T20:38:06.724Z,5.28
2018-12-29T20:40:36.268Z,4.70
2018-12-29T20:43:05.780Z,3.77
2018-12-29T20:45:35.395Z,3.52
2018-12-29T20:48:04.881Z,3.20
2018-12-29T20:50:34.378Z,2.70
2018-12-29T20:53:03.903Z,2.70
2018-12-29T20:55:33.440Z,2.90
2018-12-29T20:58:02.969Z,2.20
2018-12-29T21:00:32.455Z,2.60
2018-12-29T21:03:01.945Z,2.30
2018-12-29T21:05:31.443Z,2.30
2018-12-29T21:08:00.921Z,2.60
2018-12-29T21:10:30.436Z,2.60
2018-12-29T21:12:59.896Z,2.45
2018-12-29T21:15:29.377Z,2.30
2018-12-29T21:17:58.878Z,2.63
2018-12-29T21:20:28.359Z,2.70
2018-12-29T21:22:57.874Z,2.60
2018-12-29T21:25:27.348Z,1.97
2018-12-29T21:27:57.211Z,2.42
2018-12-29T21:30:26.695Z,3.30
2018-12-29T21:32:56.195Z,2.50
2018-12-29T21:35:25.678Z,2.70
2018-12-29T21:37:55.211Z,3.47
2018-12-29T21:40:25.088Z,3.30
2018-12-29T21:42:54.589Z,2.90
2018-12-29T21:45:24.098Z,3.70
2018-12-29T21:47:53.616Z,3.45
2018-12-29T21:50:25.565Z,3.40
2018-12-29T21:52:54.384Z,2.87
2018-12-29T21:55:23.870Z,3.23
2018-12-29T21:57:53.388Z,3.60
2018-12-29T22:00:22.874Z,3.50
2018-12-29T22:02:52.366Z,3.87
2018-12-29T22:05:21.839Z,3.67
2018-12-29T22:07:51.332Z,4.07
2018-12-29T22:10:20.812Z,3.70
2018-12-29T22:12:50.312Z,4.40
2018-12-29T22:15:19.828Z,3.83
2018-12-29T22:17:49.661Z,4.95
2018-12-29T22:20:19.141Z,3.77
2018-12-29T22:22:48.678Z,3.93
2018-12-29T22:25:18.185Z,4.30
2018-12-29T22:27:47.679Z,3.80
2018-12-29T22:30:17.165Z,3.90
2018-12-29T22:32:46.703Z,4.17
2018-12-29T22:35:16.190Z,3.87
2018-12-29T22:37:45.668Z,3.53
2018-12-29T22:40:15.180Z,3.60
2018-12-29T22:42:44.670Z,3.43
2018-12-29T22:45:14.146Z,3.23
2018-12-29T22:47:43.646Z,3.77
2018-12-29T22:50:13.136Z,3.50
2018-12-29T22:52:42.607Z,3.12
2018-12-29T22:55:12.100Z,3.20
2018-12-29T22:57:41.656Z,3.07
2018-12-29T23:00:21.317Z,3.45
2018-12-29T23:02:52.586Z,2.90
2018-12-29T23:05:22.449Z,3.50
2018-12-29T23:07:51.937Z,2.90
2018-12-29T23:10:21.425Z,2.83
2018-12-29T23:12:51.220Z,3.40
2018-12-29T23:15:20.705Z,2.80
2018-12-29T23:17:50.195Z,2.92
2018-12-29T23:20:19.689Z,3.02
2018-12-29T23:22:49.203Z,2.33
2018-12-29T23:25:18.688Z,2.43
2018-12-29T23:27:48.204Z,2.30
2018-12-29T23:30:17.711Z,2.87
2018-12-29T23:32:47.512Z,3.10
2018-12-29T23:35:17.005Z,2.50
2018-12-29T23:37:46.518Z,2.00
2018-12-29T23:40:16.023Z,2.40
2018-12-29T23:42:45.502Z,2.30
2018-12-29T23:45:15.011Z,2.33
2018-12-29T23:47:44.808Z,1.80
2018-12-29T23:50:14.562Z,2.10
2018-12-29T23:52:44.402Z,1.80
2018-12-29T23:55:13.911Z,2.50
2018-12-29T23:57:43.407Z,1.70
